Time;durP1;ratioP1;P1;durP2;ratioP2;P2;SDS_P1;SDS_P2;PMS_P1;PMS_P2;Temp;Humidity;BMP_temperature;BMP_pressure;BME280_temperature;BME280_humidity;BME280_pressure;Samples;Min_cycle;Max_cycle;Signal;HPM_P1;HPM_P2
2022/11/04 00:01:29;;;;;;;;;3.00;0.00;;;;;13.95;69.56;-19583.59;5054498;28;45487;-72
2022/11/04 00:03:54;;;;;;;;;1.00;1.00;;;;;13.97;70.09;-19584.00;5053133;28;45728;-71
2022/11/04 00:06:20;;;;;;;;;1.00;1.00;;;;;14.08;70.13;-19587.09;5056082;28;46121;-71
2022/11/04 00:08:54;;;;;;;;;0.67;0.67;;;;;14.08;70.29;-19586.97;5054543;28;45390;-71
2022/11/04 00:14:07;;;;;;;;;2.67;1.33;;;;;14.09;70.96;-19587.38;5051436;28;45524;-71
2022/11/04 00:19:17;;;;;;;;;0.67;0.67;;;;;14.05;70.86;-19586.16;5054157;28;45616;-71
2022/11/04 00:29:59;;;;;;;;;0.33;0.33;;;;;14.02;70.99;-19585.34;5039963;28;45472;-71
2022/11/04 00:35:10;;;;;;;;;0.67;0.67;;;;;13.99;71.02;-19584.56;5052792;28;45357;-71
2022/11/04 00:37:40;;;;;;;;;2.00;0.67;;;;;13.99;70.72;-19584.56;5051645;28;47355;-71
2022/11/04 00:40:08;;;;;;;;;1.67;0.33;;;;;13.89;71.00;-19582.13;5037125;28;45643;-72
2022/11/04 00:42:34;;;;;;;;;5.00;0.00;;;;;13.97;71.01;-19584.16;5036770;28;46058;-72
2022/11/04 00:44:59;;;;;;;;;0.33;0.33;;;;;13.91;70.87;-19582.53;5049755;28;45473;-71
2022/11/04 00:47:25;;;;;;;;;0.67;0.00;;;;;14.01;70.93;-19585.22;5038389;28;45505;-72
2022/11/04 00:49:51;;;;;;;;;0.33;0.33;;;;;13.97;70.59;-19584.00;5054716;28;45647;-71
2022/11/04 00:52:17;;;;;;;;;0.67;0.67;;;;;14.03;70.75;-19585.63;5037924;28;45501;-71
2022/11/04 00:54:42;;;;;;;;;1.33;0.00;;;;;13.81;70.83;-19579.84;5044019;28;46356;-71
2022/11/04 00:57:09;;;;;;;;;0.00;0.00;;;;;13.83;70.58;-19580.38;5059422;28;46253;-71
2022/11/04 00:59:34;;;;;;;;;0.00;0.00;;;;;14.01;70.96;-19585.09;5070102;28;45421;-71
2022/11/04 01:02:00;;;;;;;;;1.67;0.00;;;;;13.93;70.78;-19583.06;5054476;28;45575;-71
2022/11/04 01:04:26;;;;;;;;;1.33;0.00;;;;;13.73;70.98;-19577.84;5037894;28;45413;-72
2022/11/04 01:06:51;;;;;;;;;0.33;0.00;;;;;14.09;70.77;-19587.38;5061455;28;45514;-71
2022/11/04 01:09:17;;;;;;;;;0.00;0.00;;;;;14.08;70.75;-19587.09;5059087;28;45476;-71
2022/11/04 01:11:42;;;;;;;;;3.00;0.67;;;;;14.04;71.08;-19585.88;5059049;28;45401;-72
2022/11/04 01:14:08;;;;;;;;;0.00;0.00;;;;;14.13;71.78;-19588.44;5059418;28;45319;-72
2022/11/04 01:16:34;;;;;;;;;0.00;0.00;;;;;14.07;71.98;-19586.69;5039814;28;47241;-71
2022/11/04 01:19:00;;;;;;;;;0.00;0.00;;;;;14.08;72.45;-19586.97;5040472;28;45402;-71
2022/11/04 01:21:25;;;;;;;;;0.33;0.33;;;;;14.06;72.52;-19586.44;5058683;28;45281;-72
2022/11/04 01:23:50;;;;;;;;;3.67;1.33;;;;;14.02;72.87;-19585.34;5058864;28;45441;-72
2022/11/04 01:26:20;;;;;;;;;0.00;0.00;;;;;14.07;72.45;-19586.69;5049125;28;46645;-72
2022/11/04 01:28:46;;;;;;;;;0.00;0.00;;;;;14.02;72.59;-19585.50;5051950;28;45390;-72
2022/11/04 01:31:17;;;;;;;;;1.67;0.00;;;;;14.18;71.45;-19589.66;5050784;28;45370;-72
2022/11/04 01:33:43;;;;;;;;;0.33;0.33;;;;;14.18;71.62;-19589.66;5057383;28;45416;-71
2022/11/04 01:36:09;;;;;;;;;0.00;0.00;;;;;14.08;71.51;-19587.09;5058021;28;47037;-71
2022/11/04 01:38:35;;;;;;;;;2.00;0.00;;;;;14.20;71.33;-19590.06;5058696;28;45344;-71
2022/11/04 01:41:03;;;;;;;;;1.00;0.00;;;;;14.13;71.81;-19588.44;5057824;28;45358;-71
2022/11/04 01:43:48;;;;;;;;;1.33;0.33;;;;;14.17;71.39;-19589.38;5057337;28;45417;-71
2022/11/04 01:46:26;;;;;;;;;1.67;0.00;;;;;14.09;71.78;-19587.38;5058052;28;46140;-71
2022/11/04 01:48:54;;;;;;;;;1.00;0.00;;;;;13.96;71.85;-19583.88;5058308;28;45358;-71
2022/11/04 01:51:20;;;;;;;;;0.00;0.00;;;;;13.89;71.78;-19582.13;5035755;28;45358;-71
2022/11/04 01:53:49;;;;;;;;;2.00;0.33;;;;;13.90;71.85;-19582.41;5050843;28;45406;-71
2022/11/04 01:56:15;;;;;;;;;0.00;0.00;;;;;13.88;71.72;-19581.88;5058018;28;47064;-72
2022/11/04 01:58:54;;;;;;;;;0.00;0.00;;;;;13.83;71.87;-19580.50;5056138;28;45485;-71
2022/11/04 02:01:19;;;;;;;;;1.33;0.00;;;;;13.78;71.72;-19579.03;5057973;28;45461;-71
2022/11/04 02:03:50;;;;;;;;;0.33;0.33;;;;;13.85;71.74;-19580.91;5040676;28;45445;-71
2022/11/04 02:06:18;;;;;;;;;3.00;0.00;;;;;13.86;71.49;-19581.19;5044678;28;45495;-71
2022/11/04 02:08:45;;;;;;;;;1.00;0.00;;;;;13.86;71.82;-19581.31;5058164;28;45474;-71
2022/11/04 02:12:48;;;;;;;;;2.33;0.00;;;;;13.86;71.53;-19581.31;5053178;28;45485;-84
2022/11/04 02:13:56;;;;;;;;;0.00;0.00;;;;;13.84;71.56;-19580.78;5058332;28;45407;-82
2022/11/04 02:16:48;;;;;;;;;0.67;0.00;;;;;13.86;71.39;-19581.31;5057394;28;45579;-82
2022/11/04 02:19:38;;;;;;;;;1.67;0.00;;;;;13.87;71.10;-19581.59;5055748;28;45498;-84
2022/11/04 02:22:34;;;;;;;;;3.00;0.00;;;;;13.84;71.27;-19580.66;5058119;28;45486;-82
2022/11/04 02:25:35;;;;;;;;;1.33;0.33;;;;;13.85;71.32;-19580.91;5046750;28;45481;-82
2022/11/04 02:28:19;;;;;;;;;0.67;0.67;;;;;13.83;71.36;-19580.50;5057331;28;46255;-84
2022/11/04 02:30:51;;;;;;;;;0.67;0.00;;;;;13.84;71.12;-19580.78;5061362;27;45536;-84
2022/11/04 02:33:54;;;;;;;;;2.00;0.00;;;;;13.85;71.21;-19581.06;5055840;28;45356;-85
2022/11/04 02:36:24;;;;;;;;;0.00;0.00;;;;;13.84;71.11;-19580.78;5036569;28;45407;-83
2022/11/04 02:39:03;;;;;;;;;0.67;0.00;;;;;13.82;71.30;-19580.25;5032914;28;47223;-83
2022/11/04 02:41:52;;;;;;;;;0.33;0.00;;;;;13.89;71.23;-19582.13;5057588;28;45744;-83
2022/11/04 02:44:20;;;;;;;;;0.00;0.00;;;;;13.90;71.14;-19582.25;5038959;28;45382;-84
2022/11/04 02:46:53;;;;;;;;;0.00;0.00;;;;;13.76;70.82;-19578.50;5057582;28;45417;-84
2022/11/04 02:49:42;;;;;;;;;0.67;0.00;;;;;13.85;71.06;-19580.91;5057303;28;46941;-83
2022/11/04 02:55:51;;;;;;;;;0.00;0.00;;;;;13.36;71.14;-19568.16;5019537;28;45428;-83
2022/11/04 02:58:39;;;;;;;;;0.33;0.33;;;;;13.83;71.50;-19580.38;5019931;28;45452;-81
2022/11/04 03:01:09;;;;;;;;;0.00;0.00;;;;;13.86;71.50;-19581.19;5016628;28;46439;-84
2022/11/04 03:03:43;;;;;;;;;0.00;0.00;;;;;13.65;71.21;-19575.81;5015045;28;45588;-84
2022/11/04 03:06:13;;;;;;;;;2.00;0.33;;;;;13.90;71.58;-19582.41;4998368;28;45411;-84
2022/11/04 03:08:46;;;;;;;;;1.67;0.00;;;;;13.78;71.51;-19579.03;5015250;28;45740;-84
2022/11/04 03:11:18;;;;;;;;;0.33;0.00;;;;;13.71;71.11;-19577.44;4997736;28;47289;-84
2022/11/04 03:13:53;;;;;;;;;1.33;0.00;;;;;13.77;71.13;-19578.91;5023146;28;45581;-85
2022/11/04 03:16:48;;;;;;;;;0.00;0.00;;;;;13.96;71.07;-19583.88;5014937;28;45422;-84
2022/11/04 03:19:27;;;;;;;;;0.00;0.00;;;;;14.03;70.83;-19585.63;5013971;28;45938;-85
2022/11/04 03:22:01;;;;;;;;;0.00;0.00;;;;;14.02;70.88;-19585.50;5022799;28;46200;-85
2022/11/04 03:24:28;;;;;;;;;1.00;0.00;;;;;14.04;70.83;-19586.03;4999452;28;45428;-83
2022/11/04 03:27:22;;;;;;;;;0.00;0.00;;;;;14.04;71.07;-19586.03;4997867;28;45453;-84
2022/11/04 03:29:52;;;;;;;;;0.00;0.00;;;;;14.09;70.49;-19587.38;5003038;28;45570;-83
2022/11/04 03:32:30;;;;;;;;;0.00;0.00;;;;;14.06;70.43;-19586.56;5054294;28;46211;-82
2022/11/04 03:34:56;;;;;;;;;0.33;0.33;;;;;14.07;70.49;-19586.69;5046303;28;45380;-83
2022/11/04 03:37:21;;;;;;;;;1.00;0.00;;;;;14.09;70.38;-19587.22;5065959;28;45563;-85
2022/11/04 03:39:47;;;;;;;;;0.67;0.00;;;;;14.09;70.34;-19587.38;5057342;28;45302;-82
2022/11/04 03:42:20;;;;;;;;;0.00;0.00;;;;;14.07;70.28;-19586.69;5053518;28;46716;-82
2022/11/04 03:44:57;;;;;;;;;1.67;0.00;;;;;14.04;70.47;-19586.03;5046833;28;45429;-85
2022/11/04 03:47:26;;;;;;;;;2.33;0.33;;;;;14.09;70.25;-19587.22;5034243;28;45677;-85
2022/11/04 03:50:04;;;;;;;;;0.00;0.00;;;;;13.90;70.25;-19582.41;5053630;28;45484;-84
2022/11/04 03:52:29;;;;;;;;;1.33;0.00;;;;;14.13;70.01;-19588.31;5056482;28;46416;-83
2022/11/04 03:54:55;;;;;;;;;0.67;0.00;;;;;13.98;69.69;-19584.41;5056299;28;45314;-84
2022/11/04 03:57:38;;;;;;;;;0.00;0.00;;;;;14.10;70.06;-19587.63;5056666;28;45446;-85
2022/11/04 04:00:10;;;;;;;;;0.67;0.00;;;;;14.10;69.93;-19587.50;5056721;28;46110;-83
2022/11/04 04:02:48;;;;;;;;;0.00;0.00;;;;;13.77;69.71;-19578.78;5038484;28;46284;-84
2022/11/04 04:05:13;;;;;;;;;0.67;0.00;;;;;14.08;70.42;-19586.97;5056555;28;45455;-82
2022/11/04 04:07:47;;;;;;;;;0.67;0.00;;;;;14.11;70.19;-19587.91;5056495;28;45686;-84
2022/11/04 04:13:16;;;;;;;;;0.00;0.00;;;;;14.06;69.94;-19586.44;5056437;28;45791;-71
2022/11/04 04:15:48;;;;;;;;;0.00;0.00;;;;;13.98;69.74;-19584.28;5059914;28;45392;-71
2022/11/04 04:18:18;;;;;;;;;0.00;0.00;;;;;14.13;69.68;-19588.44;5059695;28;45477;-71
2022/11/04 04:20:46;;;;;;;;;0.33;0.00;;;;;14.05;69.63;-19586.28;5060020;28;45410;-71
2022/11/04 04:29:00;;;;;;;;;0.67;0.00;;;;;14.13;69.55;-19588.31;5059621;28;45495;-71
2022/11/04 04:34:12;;;;;;;;;0.00;0.00;;;;;14.06;69.33;-19586.44;5059364;28;45644;-71
2022/11/04 04:36:45;;;;;;;;;0.00;0.00;;;;;13.89;70.02;-19582.13;5038407;28;45742;-71
2022/11/04 04:45:00;;;;;;;;;0.50;0.00;;;;;14.04;69.82;-19585.88;5059646;28;45423;-71
2022/11/04 04:47:31;;;;;;;;;0.00;0.00;;;;;14.05;69.80;-19586.16;5057790;28;45389;-71
2022/11/04 04:49:59;;;;;;;;;0.00;0.00;;;;;14.06;69.80;-19586.56;5040543;28;45461;-71
2022/11/04 04:52:39;;;;;;;;;0.33;0.00;;;;;13.93;69.41;-19583.22;5056161;28;45386;-71
2022/11/04 04:55:05;;;;;;;;;0.00;0.00;;;;;14.05;69.74;-19586.28;5057142;28;46031;-71
2022/11/04 04:57:30;;;;;;;;;0.00;0.00;;;;;13.97;69.73;-19584.16;5059057;28;45511;-71
2022/11/04 04:59:56;;;;;;;;;0.67;0.00;;;;;13.95;69.35;-19583.59;5059148;28;45350;-71
2022/11/04 05:02:21;;;;;;;;;0.00;0.00;;;;;14.00;69.36;-19584.81;5059414;28;45374;-71
2022/11/04 05:04:47;;;;;;;;;0.00;0.00;;;;;14.06;69.32;-19586.44;5040618;28;47822;-71
2022/11/04 05:07:13;;;;;;;;;0.00;0.00;;;;;13.88;69.35;-19581.88;5059417;28;45342;-71
2022/11/04 05:09:38;;;;;;;;;0.00;0.00;;;;;14.05;69.47;-19586.16;5058657;28;45745;-72
2022/11/04 05:12:04;;;;;;;;;0.00;0.00;;;;;14.05;69.35;-19586.16;5059430;28;45418;-71
2022/11/04 05:14:29;;;;;;;;;0.00;0.00;;;;;14.03;69.27;-19585.63;5040486;28;48325;-71
2022/11/04 05:16:55;;;;;;;;;0.00;0.00;;;;;13.96;68.91;-19583.75;5059100;28;45428;-71
2022/11/04 05:19:20;;;;;;;;;0.00;0.00;;;;;13.93;69.34;-19583.06;5058957;28;45373;-71
2022/11/04 05:21:46;;;;;;;;;0.00;0.00;;;;;14.04;69.20;-19586.03;5059293;28;45496;-71
2022/11/04 05:24:11;;;;;;;;;0.00;0.00;;;;;14.00;69.21;-19584.94;5058458;28;45369;-71
2022/11/04 05:26:37;;;;;;;;;0.33;0.00;;;;;13.94;69.20;-19583.47;5058860;28;45484;-71
2022/11/04 05:29:02;;;;;;;;;0.00;0.00;;;;;13.99;69.73;-19584.56;5058725;28;45429;-71
2022/11/04 05:31:29;;;;;;;;;0.00;0.00;;;;;14.04;69.43;-19585.88;5063361;28;45390;-72
2022/11/04 05:33:55;;;;;;;;;0.00;0.00;;;;;14.06;69.33;-19586.44;5038403;28;47708;-72
2022/11/04 05:36:20;;;;;;;;;0.67;0.00;;;;;14.04;69.29;-19586.03;5058736;28;45338;-72
2022/11/04 05:38:51;;;;;;;;;0.00;0.00;;;;;14.06;69.39;-19586.44;5058461;28;45299;-71
2022/11/04 05:41:26;;;;;;;;;0.00;0.00;;;;;13.98;69.47;-19584.41;5059151;28;45508;-71
2022/11/04 05:43:57;;;;;;;;;0.00;0.00;;;;;13.97;69.51;-19584.16;5058121;28;47038;-71
2022/11/04 05:46:23;;;;;;;;;0.00;0.00;;;;;13.88;69.40;-19581.72;5058560;28;45271;-71
2022/11/04 05:48:49;;;;;;;;;0.33;0.00;;;;;13.92;69.45;-19582.94;5058519;28;45215;-71
2022/11/04 05:51:17;;;;;;;;;0.00;0.00;;;;;13.77;69.59;-19578.78;5054199;28;45564;-71
2022/11/04 05:53:42;;;;;;;;;0.33;0.00;;;;;13.84;69.33;-19580.78;5034212;28;47996;-71
2022/11/04 05:56:07;;;;;;;;;0.67;0.00;;;;;13.84;69.48;-19580.66;5055167;28;45362;-71
2022/11/04 05:58:34;;;;;;;;;0.00;0.00;;;;;13.87;69.94;-19581.47;5057415;28;45692;-71
2022/11/04 06:01:11;;;;;;;;;0.67;0.00;;;;;13.92;69.75;-19582.94;5056317;28;45331;-71
2022/11/04 06:03:37;;;;;;;;;0.00;0.00;;;;;13.92;69.73;-19582.81;5057769;28;45393;-71
2022/11/04 06:06:02;;;;;;;;;0.33;0.00;;;;;13.86;69.66;-19581.31;5054168;28;45374;-71
2022/11/04 06:08:29;;;;;;;;;0.00;0.00;;;;;13.90;69.67;-19582.41;5056161;28;45387;-71
2022/11/04 06:10:54;;;;;;;;;0.00;0.00;;;;;13.83;69.74;-19580.50;5058196;28;45307;-71
2022/11/04 06:13:19;;;;;;;;;0.00;0.00;;;;;13.87;69.80;-19581.59;5036551;28;47005;-71
2022/11/04 06:15:45;;;;;;;;;0.00;0.00;;;;;13.88;70.10;-19581.88;5050430;28;45453;-71
2022/11/04 06:18:10;;;;;;;;;0.00;0.00;;;;;13.94;69.58;-19583.47;5057993;28;45445;-72
2022/11/04 06:20:36;;;;;;;;;0.00;0.00;;;;;13.92;69.60;-19582.94;5058239;28;45352;-72
2022/11/04 06:23:01;;;;;;;;;0.00;0.00;;;;;13.97;69.63;-19584.16;5057436;28;45531;-72
2022/11/04 06:25:26;;;;;;;;;0.33;0.33;;;;;13.98;69.66;-19584.41;5058113;28;45481;-72
2022/11/04 06:27:51;;;;;;;;;0.00;0.00;;;;;13.99;69.62;-19584.56;5039827;28;45432;-72
2022/11/04 06:30:17;;;;;;;;;0.00;0.00;;;;;13.96;69.62;-19583.88;5060382;28;45318;-72
2022/11/04 06:32:42;;;;;;;;;0.00;0.00;;;;;14.03;69.53;-19585.63;5055990;28;45714;-72
2022/11/04 06:35:08;;;;;;;;;0.00;0.00;;;;;13.83;69.30;-19580.38;5057775;28;45383;-72
2022/11/04 06:37:33;;;;;;;;;0.00;0.00;;;;;13.99;69.48;-19584.56;5056888;28;45377;-72
2022/11/04 06:39:59;;;;;;;;;0.00;0.00;;;;;14.05;69.03;-19586.28;5058042;28;45354;-72
2022/11/04 06:42:25;;;;;;;;;0.00;0.00;;;;;14.03;69.19;-19585.63;5056078;28;46112;-72
2022/11/04 06:44:51;;;;;;;;;0.00;0.00;;;;;14.09;69.30;-19587.22;5035010;28;45322;-72
2022/11/04 06:47:17;;;;;;;;;0.33;0.00;;;;;14.05;69.18;-19586.28;5038110;28;45579;-72
2022/11/04 06:49:42;;;;;;;;;1.67;0.00;;;;;14.05;69.45;-19586.28;5055051;28;45285;-72
2022/11/04 06:52:08;;;;;;;;;0.00;0.00;;;;;14.05;69.18;-19586.28;5054955;28;46141;-71
2022/11/04 06:54:33;;;;;;;;;0.00;0.00;;;;;14.16;69.46;-19589.13;5057588;28;45412;-71
2022/11/04 06:56:59;;;;;;;;;0.00;0.00;;;;;14.10;68.98;-19587.50;5056516;28;45760;-72
2022/11/04 06:59:24;;;;;;;;;1.67;0.33;;;;;14.16;68.99;-19589.13;5057906;28;45935;-71
2022/11/04 07:01:50;;;;;;;;;0.67;0.67;;;;;13.89;69.18;-19582.13;5055274;28;46388;-72
2022/11/04 07:04:16;;;;;;;;;0.33;0.33;;;;;14.17;68.90;-19589.38;5036033;28;45365;-72
2022/11/04 07:06:42;;;;;;;;;1.00;0.00;;;;;14.03;68.75;-19585.63;5055258;28;45445;-72
2022/11/04 07:09:10;;;;;;;;;0.00;0.00;;;;;13.98;68.99;-19584.41;5055942;28;45438;-72
2022/11/04 07:11:35;;;;;;;;;0.00;0.00;;;;;13.93;68.89;-19583.06;5055308;28;46192;-72
2022/11/04 07:14:01;;;;;;;;;0.00;0.00;;;;;14.03;68.86;-19585.75;5034902;28;45632;-71
2022/11/04 07:16:26;;;;;;;;;3.33;0.67;;;;;14.21;68.84;-19590.47;5017920;28;45458;-72
2022/11/04 07:18:55;;;;;;;;;0.33;0.33;;;;;13.99;68.69;-19584.56;5051369;28;45579;-72
2022/11/04 07:21:21;;;;;;;;;3.33;1.00;;;;;14.02;68.73;-19585.50;5056590;28;46208;-72
2022/11/04 07:23:46;;;;;;;;;0.00;0.00;;;;;14.25;68.58;-19591.53;5056103;28;45372;-72
2022/11/04 07:26:12;;;;;;;;;1.33;0.00;;;;;14.26;68.55;-19591.81;5055928;28;45381;-71
2022/11/04 07:28:38;;;;;;;;;0.33;0.33;;;;;14.28;68.71;-19592.19;5035846;28;45553;-71
2022/11/04 07:31:06;;;;;;;;;0.67;0.67;;;;;14.25;68.50;-19591.41;5050843;28;47517;-70
2022/11/04 07:33:32;;;;;;;;;0.67;0.00;;;;;14.26;68.65;-19591.66;5051408;28;45357;-70
2022/11/04 07:36:02;;;;;;;;;0.67;0.67;;;;;14.28;68.62;-19592.19;5056440;28;45419;-71
2022/11/04 07:38:27;;;;;;;;;1.67;0.67;;;;;14.31;68.54;-19593.00;5055111;28;45587;-73
2022/11/04 07:40:53;;;;;;;;;2.67;0.00;;;;;14.22;68.47;-19590.59;5053759;28;54321;-74
2022/11/04 07:43:18;;;;;;;;;1.67;0.00;;;;;14.36;68.61;-19594.34;5054657;28;45388;-72
2022/11/04 07:45:44;;;;;;;;;0.00;0.00;;;;;14.36;68.54;-19594.50;5051849;28;45647;-72
2022/11/04 07:48:09;;;;;;;;;2.33;0.00;;;;;14.37;68.68;-19594.63;5055256;28;45459;-72
2022/11/04 07:50:38;;;;;;;;;0.67;0.00;;;;;14.38;68.40;-19594.91;5054008;28;47096;-72
2022/11/04 07:53:03;;;;;;;;;2.33;0.00;;;;;14.22;68.24;-19590.72;5039011;28;45388;-72
2022/11/04 07:55:29;;;;;;;;;0.00;0.00;;;;;14.39;68.40;-19595.16;5058283;28;45480;-72
2022/11/04 07:57:54;;;;;;;;;1.00;1.00;;;;;14.35;68.26;-19594.22;5040164;28;45584;-72
2022/11/04 08:00:20;;;;;;;;;2.33;0.00;;;;;14.44;68.18;-19596.38;5057627;28;46851;-73
2022/11/04 08:02:45;;;;;;;;;0.00;0.00;;;;;14.46;68.03;-19597.03;5059287;28;45524;-72
2022/11/04 08:05:13;;;;;;;;;0.67;0.00;;;;;14.48;68.25;-19597.56;5059324;28;45528;-72
2022/11/04 08:07:39;;;;;;;;;0.00;0.00;;;;;14.51;67.88;-19598.25;5039039;28;45372;-72
2022/11/04 08:10:05;;;;;;;;;0.33;0.33;;;;;14.43;68.12;-19596.22;5057794;28;45468;-82
2022/11/04 08:12:31;;;;;;;;;0.67;0.00;;;;;14.61;67.75;-19600.81;5059302;28;45365;-82
2022/11/04 08:14:58;;;;;;;;;0.33;0.33;;;;;14.40;67.82;-19595.44;5041241;28;45733;-82
2022/11/04 08:17:23;;;;;;;;;1.67;0.00;;;;;14.59;67.99;-19600.28;5058465;28;45539;-84
2022/11/04 08:19:48;;;;;;;;;0.00;0.00;;;;;14.73;67.86;-19604.16;5053592;28;46164;-82
2022/11/04 08:22:14;;;;;;;;;0.00;0.00;;;;;14.83;67.55;-19606.59;5059174;28;45441;-82
2022/11/04 08:24:39;;;;;;;;;2.00;0.67;;;;;14.70;67.20;-19603.22;5058367;28;45735;-82
2022/11/04 08:27:06;;;;;;;;;0.33;0.00;;;;;14.81;67.51;-19606.03;5059502;28;45494;-83
2022/11/04 08:29:32;;;;;;;;;0.67;0.67;;;;;14.83;66.72;-19606.72;5054950;28;46165;-83
2022/11/04 08:31:58;;;;;;;;;0.00;0.00;;;;;14.96;66.97;-19610.19;5044586;28;45797;-83
2022/11/04 08:34:23;;;;;;;;;0.00;0.00;;;;;15.03;66.87;-19611.94;5054563;28;45803;-87
2022/11/04 08:36:51;;;;;;;;;1.67;0.00;;;;;14.87;66.71;-19607.66;5056894;28;45443;-85
2022/11/04 08:39:17;;;;;;;;;2.00;0.00;;;;;14.98;66.53;-19610.59;5057132;28;45683;-81
2022/11/04 08:41:44;;;;;;;;;2.00;1.00;;;;;15.13;66.19;-19614.63;5039892;28;45360;-81
2022/11/04 08:44:13;;;;;;;;;0.00;0.00;;;;;15.17;66.35;-19615.72;5048809;28;45509;-81
2022/11/04 08:46:41;;;;;;;;;0.67;0.00;;;;;15.05;66.07;-19612.47;5054399;28;45491;-84
2022/11/04 08:49:07;;;;;;;;;2.00;0.00;;;;;15.18;66.27;-19615.97;5047586;28;49556;-82
2022/11/04 08:51:34;;;;;;;;;0.00;0.00;;;;;15.11;66.44;-19613.97;5055344;28;45656;-82
2022/11/04 08:54:00;;;;;;;;;1.00;0.00;;;;;15.29;66.24;-19618.66;5057357;28;45723;-82
2022/11/04 08:56:31;;;;;;;;;1.00;0.00;;;;;15.33;65.89;-19619.72;5054596;28;45728;-82
2022/11/04 08:58:58;;;;;;;;;0.00;0.00;;;;;15.24;65.81;-19617.31;5057056;28;46261;-82
2022/11/04 09:01:25;;;;;;;;;2.00;0.00;;;;;15.38;65.88;-19621.06;5054195;28;45568;-83
2022/11/04 09:03:51;;;;;;;;;2.00;1.00;;;;;15.34;65.62;-19620.00;5056473;28;45467;-83
2022/11/04 09:06:33;;;;;;;;;0.00;0.00;;;;;15.49;65.16;-19623.88;5040418;28;45515;-82
2022/11/04 09:09:03;;;;;;;;;3.00;2.00;;;;;15.40;65.61;-19621.59;5039922;28;47442;-82
2022/11/04 09:11:32;;;;;;;;;1.67;1.00;;;;;15.61;65.92;-19627.25;5057768;28;45601;-72
2022/11/04 09:14:00;;;;;;;;;1.00;1.00;;;;;15.52;65.92;-19624.81;5054128;28;45390;-72
2022/11/04 09:16:27;;;;;;;;;2.00;0.33;;;;;15.80;65.39;-19632.06;5058311;28;45469;-71
2022/11/04 09:18:52;;;;;;;;;1.00;0.00;;;;;15.87;64.92;-19633.81;5056400;28;47184;-74
2022/11/04 09:21:17;;;;;;;;;0.00;0.00;;;;;15.90;64.77;-19634.75;5057223;28;45462;-74
2022/11/04 09:23:43;;;;;;;;;0.00;0.00;;;;;15.76;64.41;-19631.00;5057820;28;45422;-75
2022/11/04 09:26:12;;;;;;;;;0.00;0.00;;;;;15.84;64.30;-19633.16;5055816;28;45474;-74
2022/11/04 09:28:39;;;;;;;;;0.00;0.00;;;;;16.03;63.77;-19638.25;5051532;28;45937;-74
2022/11/04 09:31:10;;;;;;;;;0.00;0.00;;;;;16.16;64.05;-19641.47;5061149;28;45505;-74
2022/11/04 09:33:36;;;;;;;;;0.00;0.00;;;;;16.17;63.81;-19641.72;5056046;28;45204;-73
2022/11/04 09:36:02;;;;;;;;;1.33;0.00;;;;;16.27;63.88;-19644.41;5056982;28;45486;-74
2022/11/04 09:38:27;;;;;;;;;0.00;0.00;;;;;16.36;64.07;-19646.81;5036975;28;46171;-74
2022/11/04 09:40:53;;;;;;;;;0.00;0.00;;;;;16.35;63.59;-19646.41;5032353;28;45699;-74
2022/11/04 09:43:31;;;;;;;;;0.00;0.00;;;;;16.51;63.37;-19650.69;5036731;28;45572;-73
2022/11/04 09:45:58;;;;;;;;;0.00;0.00;;;;;16.53;62.74;-19651.09;5049593;28;45373;-74
2022/11/04 09:48:30;;;;;;;;;1.25;0.75;;;;;16.56;62.57;-19652.03;5055521;28;45491;-74
2022/11/04 09:51:03;;;;;;;;;2.00;1.00;;;;;16.62;62.65;-19653.66;5055612;28;45512;-74
2022/11/04 09:53:38;;;;;;;;;0.75;0.75;;;;;16.67;62.04;-19654.84;5057695;28;45450;-74
2022/11/04 09:56:15;;;;;;;;;0.00;0.00;;;;;16.77;62.10;-19657.53;5057185;28;45306;-74
2022/11/04 09:58:40;;;;;;;;;2.00;0.50;;;;;16.97;61.36;-19662.63;5035690;28;47431;-73
2022/11/04 10:01:12;;;;;;;;;0.00;0.00;;;;;17.09;60.74;-19665.84;5049754;28;45537;-73
2022/11/04 10:04:19;;;;;;;;;0.00;0.00;;;;;16.86;60.47;-19659.94;5056734;28;45410;-73
2022/11/04 10:07:03;;;;;;;;;1.00;1.00;;;;;17.09;60.52;-19665.97;5057975;28;45956;-73
2022/11/04 10:09:59;;;;;;;;;0.50;0.00;;;;;17.05;60.52;-19664.78;5056790;28;46365;-72
2022/11/04 10:12:40;;;;;;;;;0.00;0.00;;;;;16.99;60.20;-19663.16;5036666;28;45891;-74
2022/11/04 10:15:11;;;;;;;;;0.00;0.00;;;;;17.02;59.61;-19663.97;5038322;28;45397;-73
2022/11/04 10:18:01;;;;;;;;;1.00;0.00;;;;;16.94;59.80;-19661.94;5053823;28;45599;-73
2022/11/04 10:20:37;;;;;;;;;0.00;0.00;;;;;16.82;59.90;-19658.75;5056709;28;45491;-73
2022/11/04 10:23:21;;;;;;;;;0.00;0.00;;;;;16.82;60.80;-19658.88;5032228;28;45491;-73
2022/11/04 10:26:23;;;;;;;;;0.00;0.00;;;;;16.89;60.52;-19660.63;5054399;28;45826;-71
2022/11/04 10:28:57;;;;;;;;;0.75;0.75;;;;;16.71;60.23;-19655.91;5057037;28;45392;-71
2022/11/04 10:31:23;;;;;;;;;0.75;0.75;;;;;17.02;60.11;-19663.97;5055400;28;47211;-71
2022/11/04 10:34:02;;;;;;;;;0.25;0.25;;;;;16.96;59.69;-19662.50;5052665;28;45696;-72
2022/11/04 10:36:27;;;;;;;;;0.00;0.00;;;;;17.04;59.97;-19664.63;5056542;28;45677;-72
2022/11/04 10:38:55;;;;;;;;;0.50;0.50;;;;;17.26;59.24;-19670.25;5056207;28;45649;-72
2022/11/04 10:41:23;;;;;;;;;0.00;0.00;;;;;17.20;59.34;-19668.78;5056432;28;46166;-72
2022/11/04 10:44:00;;;;;;;;;0.00;0.00;;;;;17.19;58.77;-19668.50;5052554;28;45428;-71
2022/11/04 10:46:37;;;;;;;;;0.00;0.00;;;;;17.36;58.94;-19672.94;5053599;28;45403;-72
2022/11/04 10:49:27;;;;;;;;;0.00;0.00;;;;;17.47;58.30;-19675.75;5037750;28;45338;-71
2022/11/04 10:51:55;;;;;;;;;1.00;0.00;;;;;17.60;57.94;-19679.22;5056734;28;46838;-72
2022/11/04 10:54:21;;;;;;;;;0.00;0.00;;;;;17.70;57.87;-19681.91;5055990;28;45793;-72
2022/11/04 10:56:50;;;;;;;;;0.00;0.00;;;;;17.81;58.13;-19684.56;5054383;28;45372;-72
2022/11/04 10:59:23;;;;;;;;;0.00;0.00;;;;;17.82;57.89;-19684.84;5055956;28;45723;-72
2022/11/04 11:01:52;;;;;;;;;2.00;0.75;;;;;17.83;57.45;-19685.09;5053876;28;46126;-72
2022/11/04 11:04:30;;;;;;;;;0.75;0.00;;;;;17.82;57.24;-19684.97;5056136;28;45507;-72
2022/11/04 11:06:59;;;;;;;;;0.00;0.00;;;;;17.59;56.68;-19678.94;5036503;28;45481;-72
2022/11/04 11:09:36;;;;;;;;;0.00;0.00;;;;;17.58;57.17;-19678.69;5052177;28;45660;-75
2022/11/04 11:12:12;;;;;;;;;0.00;0.00;;;;;17.11;57.47;-19666.38;5051789;28;45472;-78
2022/11/04 11:14:38;;;;;;;;;0.00;0.00;;;;;17.28;57.76;-19670.94;5033112;28;45524;-74
2022/11/04 11:17:22;;;;;;;;;0.00;0.00;;;;;17.27;57.70;-19670.66;5051885;28;45886;-73
2022/11/04 11:19:54;;;;;;;;;0.67;0.00;;;;;17.32;58.26;-19671.84;5034727;28;45651;-73
2022/11/04 11:22:40;;;;;;;;;0.00;0.00;;;;;17.26;58.91;-19670.25;5052837;28;46686;-75
2022/11/04 11:25:25;;;;;;;;;0.00;0.00;;;;;17.15;60.30;-19667.31;5038255;28;45927;-74
2022/11/04 11:28:03;;;;;;;;;1.00;1.00;;;;;16.94;61.05;-19661.81;5037973;28;45529;-75
2022/11/04 11:30:32;;;;;;;;;3.00;0.75;;;;;16.96;61.76;-19662.34;5051482;28;45497;-72
2022/11/04 11:33:04;;;;;;;;;0.75;0.75;;;;;16.88;61.52;-19660.34;5051389;28;46213;-73
2022/11/04 11:35:44;;;;;;;;;0.25;0.25;;;;;16.82;61.71;-19658.75;5053126;28;45489;-72
2022/11/04 11:38:17;;;;;;;;;0.00;0.00;;;;;16.85;61.78;-19659.53;5056423;28;45503;-75
2022/11/04 11:40:45;;;;;;;;;0.00;0.00;;;;;16.81;61.00;-19658.59;5055895;28;45909;-75
2022/11/04 11:43:27;;;;;;;;;0.00;0.00;;;;;17.01;60.78;-19663.81;5054085;28;45397;-75
2022/11/04 11:45:56;;;;;;;;;0.00;0.00;;;;;17.03;60.87;-19664.22;5049488;28;46293;-73
2022/11/04 11:48:48;;;;;;;;;1.00;0.00;;;;;17.05;60.72;-19664.78;5049347;28;45415;-72
2022/11/04 11:51:23;;;;;;;;;0.00;0.00;;;;;17.08;60.30;-19665.69;5045032;28;45517;-75
2022/11/04 11:54:13;;;;;;;;;0.00;0.00;;;;;17.11;61.10;-19666.38;5051463;28;47330;-72
2022/11/04 11:56:43;;;;;;;;;0.00;0.00;;;;;17.16;60.70;-19667.72;5050145;28;45512;-72
2022/11/04 11:59:34;;;;;;;;;0.00;0.00;;;;;17.21;60.25;-19669.06;5036797;28;46008;-72
2022/11/04 12:02:24;;;;;;;;;0.00;0.00;;;;;17.28;59.94;-19670.94;5030978;28;45579;-74
2022/11/04 12:04:52;;;;;;;;;0.00;0.00;;;;;17.27;60.16;-19670.53;5049913;28;45436;-72
2022/11/04 12:07:25;;;;;;;;;0.00;0.00;;;;;17.39;60.38;-19673.59;5051192;28;45496;-72
2022/11/04 12:09:53;;;;;;;;;3.00;0.67;;;;;17.38;59.52;-19673.34;5050999;28;45535;-71
2022/11/04 12:12:37;;;;;;;;;0.00;0.00;;;;;17.35;59.30;-19672.53;5050174;28;45553;-72
2022/11/04 12:15:17;;;;;;;;;1.00;1.00;;;;;17.41;58.67;-19674.13;5052415;28;46172;-71
2022/11/04 12:18:01;;;;;;;;;2.00;1.00;;;;;17.54;58.52;-19677.47;5049909;28;45528;-73